sensor_id;sensor_type;location;lat;lon;timestamp;temperature;humidity
1225;DHT22;602;48.000;7.840;2024-01-30T00:01:06;10.60;99.90
1225;DHT22;602;48.000;7.840;2024-01-30T00:03:32;10.60;99.90
1225;DHT22;602;48.000;7.840;2024-01-30T00:05:59;10.60;99.90
1225;DHT22;602;48.000;7.840;2024-01-30T00:08:26;10.60;99.90
1225;DHT22;602;48.000;7.840;2024-01-30T00:10:54;10.70;99.90
1225;DHT22;602;48.000;7.840;2024-01-30T00:13:21;10.70;99.90
1225;DHT22;602;48.000;7.840;2024-01-30T00:15:48;10.70;99.90
1225;DHT22;602;48.000;7.840;2024-01-30T00:18:15;10.70;99.90
1225;DHT22;602;48.000;7.840;2024-01-30T00:20:42;10.70;99.90
1225;DHT22;602;48.000;7.840;2024-01-30T00:23:09;10.70;99.90
1225;DHT22;602;48.000;7.840;2024-01-30T00:25:36;10.70;99.90
1225;DHT22;602;48.000;7.840;2024-01-30T00:28:04;10.60;99.90
1225;DHT22;602;48.000;7.840;2024-01-30T00:30:31;10.70;99.90
1225;DHT22;602;48.000;7.840;2024-01-30T00:32:58;10.70;99.90
1225;DHT22;602;48.000;7.840;2024-01-30T00:35:25;10.70;99.90
1225;DHT22;602;48.000;7.840;2024-01-30T00:37:52;10.60;99.90
1225;DHT22;602;48.000;7.840;2024-01-30T00:40:19;10.60;99.90
1225;DHT22;602;48.000;7.840;2024-01-30T00:42:46;10.70;99.90
1225;DHT22;602;48.000;7.840;2024-01-30T00:45:14;10.60;99.90
1225;DHT22;602;48.000;7.840;2024-01-30T00:47:44;10.60;99.90
1225;DHT22;602;48.000;7.840;2024-01-30T00:50:11;10.60;99.90
1225;DHT22;602;48.000;7.840;2024-01-30T00:52:38;10.60;99.90
1225;DHT22;602;48.000;7.840;2024-01-30T00:55:07;10.60;99.90
1225;DHT22;602;48.000;7.840;2024-01-30T00:57:33;10.50;99.90
1225;DHT22;602;48.000;7.840;2024-01-30T01:00:00;10.40;99.90
1225;DHT22;602;48.000;7.840;2024-01-30T01:02:28;10.50;99.90
1225;DHT22;602;48.000;7.840;2024-01-30T01:04:55;10.50;99.90
1225;DHT22;602;48.000;7.840;2024-01-30T01:07:22;10.50;99.90
1225;DHT22;602;48.000;7.840;2024-01-30T01:09:49;10.50;99.90
1225;DHT22;602;48.000;7.840;2024-01-30T01:12:15;10.40;99.90
1225;DHT22;602;48.000;7.840;2024-01-30T01:14:42;10.50;99.90
1225;DHT22;602;48.000;7.840;2024-01-30T01:17:09;10.50;99.90
1225;DHT22;602;48.000;7.840;2024-01-30T01:19:37;10.40;99.90
1225;DHT22;602;48.000;7.840;2024-01-30T01:22:05;10.40;99.90
1225;DHT22;602;48.000;7.840;2024-01-30T01:24:32;10.40;99.90
1225;DHT22;602;48.000;7.840;2024-01-30T01:26:59;10.40;99.90
1225;DHT22;602;48.000;7.840;2024-01-30T01:29:26;10.50;99.90
1225;DHT22;602;48.000;7.840;2024-01-30T01:31:54;10.50;99.90
1225;DHT22;602;48.000;7.840;2024-01-30T01:34:22;10.60;99.90
1225;DHT22;602;48.000;7.840;2024-01-30T01:36:51;10.50;99.90
1225;DHT22;602;48.000;7.840;2024-01-30T01:39:21;10.60;99.90
1225;DHT22;602;48.000;7.840;2024-01-30T01:41:48;10.50;99.90
1225;DHT22;602;48.000;7.840;2024-01-30T01:44:15;10.40;99.90
1225;DHT22;602;48.000;7.840;2024-01-30T01:46:42;10.50;99.90
1225;DHT22;602;48.000;7.840;2024-01-30T01:49:09;10.50;99.90
1225;DHT22;602;48.000;7.840;2024-01-30T01:51:36;10.40;99.90
1225;DHT22;602;48.000;7.840;2024-01-30T01:54:07;10.30;99.90
1225;DHT22;602;48.000;7.840;2024-01-30T01:56:35;10.30;99.90
1225;DHT22;602;48.000;7.840;2024-01-30T01:59:05;10.30;99.90
1225;DHT22;602;48.000;7.840;2024-01-30T02:01:33;10.40;99.90
1225;DHT22;602;48.000;7.840;2024-01-30T02:04:00;10.40;99.90
1225;DHT22;602;48.000;7.840;2024-01-30T02:06:28;10.40;99.90
1225;DHT22;602;48.000;7.840;2024-01-30T02:08:55;10.40;99.90
1225;DHT22;602;48.000;7.840;2024-01-30T02:11:23;10.40;99.90
1225;DHT22;602;48.000;7.840;2024-01-30T02:13:50;10.40;99.90
1225;DHT22;602;48.000;7.840;2024-01-30T02:16:17;10.40;99.90
1225;DHT22;602;48.000;7.840;2024-01-30T02:18:44;10.30;99.90
1225;DHT22;602;48.000;7.840;2024-01-30T02:21:15;10.30;99.90
1225;DHT22;602;48.000;7.840;2024-01-30T02:23:43;10.20;99.90
1225;DHT22;602;48.000;7.840;2024-01-30T02:26:10;10.10;99.90
1225;DHT22;602;48.000;7.840;2024-01-30T02:28:37;10.10;99.90
1225;DHT22;602;48.000;7.840;2024-01-30T02:31:04;10.00;99.90
1225;DHT22;602;48.000;7.840;2024-01-30T02:33:31;10.10;99.90
1225;DHT22;602;48.000;7.840;2024-01-30T02:35:58;9.90;99.90
1225;DHT22;602;48.000;7.840;2024-01-30T02:38:27;10.00;99.90
1225;DHT22;602;48.000;7.840;2024-01-30T02:40:54;9.90;99.90
1225;DHT22;602;48.000;7.840;2024-01-30T02:43:22;10.00;99.90
1225;DHT22;602;48.000;7.840;2024-01-30T02:45:49;10.00;99.90
1225;DHT22;602;48.000;7.840;2024-01-30T02:48:16;10.00;99.90
1225;DHT22;602;48.000;7.840;2024-01-30T02:50:43;10.00;99.90
1225;DHT22;602;48.000;7.840;2024-01-30T02:53:11;10.00;99.90
1225;DHT22;602;48.000;7.840;2024-01-30T02:55:39;10.00;99.90
1225;DHT22;602;48.000;7.840;2024-01-30T02:58:06;10.00;99.90
1225;DHT22;602;48.000;7.840;2024-01-30T03:00:33;10.00;99.90
1225;DHT22;602;48.000;7.840;2024-01-30T03:03:00;9.90;99.90
1225;DHT22;602;48.000;7.840;2024-01-30T03:05:27;9.90;99.90
1225;DHT22;602;48.000;7.840;2024-01-30T03:07:54;9.90;99.90
1225;DHT22;602;48.000;7.840;2024-01-30T03:10:21;9.80;99.90
1225;DHT22;602;48.000;7.840;2024-01-30T03:12:49;9.70;99.90
1225;DHT22;602;48.000;7.840;2024-01-30T03:15:16;9.70;99.90
1225;DHT22;602;48.000;7.840;2024-01-30T03:17:43;9.70;99.90
1225;DHT22;602;48.000;7.840;2024-01-30T03:20:10;9.70;99.90
1225;DHT22;602;48.000;7.840;2024-01-30T03:22:38;9.70;99.90
1225;DHT22;602;48.000;7.840;2024-01-30T03:25:05;9.80;99.90
1225;DHT22;602;48.000;7.840;2024-01-30T03:27:32;9.80;99.90
1225;DHT22;602;48.000;7.840;2024-01-30T03:30:00;9.80;99.90
1225;DHT22;602;48.000;7.840;2024-01-30T03:32:27;9.80;99.90
1225;DHT22;602;48.000;7.840;2024-01-30T03:34:54;9.80;99.90
1225;DHT22;602;48.000;7.840;2024-01-30T03:37:21;9.70;99.90
1225;DHT22;602;48.000;7.840;2024-01-30T03:39:47;9.70;99.90
1225;DHT22;602;48.000;7.840;2024-01-30T03:42:14;9.80;99.90
1225;DHT22;602;48.000;7.840;2024-01-30T03:44:41;9.70;99.90
1225;DHT22;602;48.000;7.840;2024-01-30T03:47:10;9.80;99.90
1225;DHT22;602;48.000;7.840;2024-01-30T03:49:37;9.70;99.90
1225;DHT22;602;48.000;7.840;2024-01-30T03:52:04;9.70;99.90
1225;DHT22;602;48.000;7.840;2024-01-30T03:54:31;9.60;99.90
1225;DHT22;602;48.000;7.840;2024-01-30T03:56:57;9.60;99.90
1225;DHT22;602;48.000;7.840;2024-01-30T03:59:24;9.60;99.90
1225;DHT22;602;48.000;7.840;2024-01-30T04:01:51;9.60;99.90
1225;DHT22;602;48.000;7.840;2024-01-30T04:04:20;9.60;99.90
1225;DHT22;602;48.000;7.840;2024-01-30T04:06:47;9.60;99.90
1225;DHT22;602;48.000;7.840;2024-01-30T04:09:14;9.60;99.90
1225;DHT22;602;48.000;7.840;2024-01-30T04:11:41;9.50;99.90
1225;DHT22;602;48.000;7.840;2024-01-30T04:14:08;9.50;99.90
1225;DHT22;602;48.000;7.840;2024-01-30T04:16:35;9.50;99.90
1225;DHT22;602;48.000;7.840;2024-01-30T04:19:02;9.40;99.90
1225;DHT22;602;48.000;7.840;2024-01-30T04:21:30;9.40;99.90
1225;DHT22;602;48.000;7.840;2024-01-30T04:23:57;9.40;99.90
1225;DHT22;602;48.000;7.840;2024-01-30T04:26:24;9.40;99.90
1225;DHT22;602;48.000;7.840;2024-01-30T04:28:51;9.40;99.90
1225;DHT22;602;48.000;7.840;2024-01-30T04:31:17;9.40;99.90
1225;DHT22;602;48.000;7.840;2024-01-30T04:33:44;9.50;99.90
1225;DHT22;602;48.000;7.840;2024-01-30T04:36:11;9.50;99.90
1225;DHT22;602;48.000;7.840;2024-01-30T04:38:39;9.60;99.90
1225;DHT22;602;48.000;7.840;2024-01-30T04:41:06;9.70;99.90
1225;DHT22;602;48.000;7.840;2024-01-30T04:43:34;9.80;99.90
1225;DHT22;602;48.000;7.840;2024-01-30T04:46:01;9.80;99.90
1225;DHT22;602;48.000;7.840;2024-01-30T04:48:28;9.90;99.90
1225;DHT22;602;48.000;7.840;2024-01-30T04:50:55;9.90;99.90
1225;DHT22;602;48.000;7.840;2024-01-30T04:53:22;9.90;99.90
1225;DHT22;602;48.000;7.840;2024-01-30T04:55:49;10.10;99.90
1225;DHT22;602;48.000;7.840;2024-01-30T04:58:16;10.20;99.90
1225;DHT22;602;48.000;7.840;2024-01-30T05:00:43;10.30;99.90
1225;DHT22;602;48.000;7.840;2024-01-30T05:03:11;10.50;99.90
1225;DHT22;602;48.000;7.840;2024-01-30T05:05:38;10.60;99.90
1225;DHT22;602;48.000;7.840;2024-01-30T05:08:05;10.70;99.90
1225;DHT22;602;48.000;7.840;2024-01-30T05:10:32;10.60;99.90
1225;DHT22;602;48.000;7.840;2024-01-30T05:13:01;10.70;99.90
1225;DHT22;602;48.000;7.840;2024-01-30T05:15:27;10.80;99.90
1225;DHT22;602;48.000;7.840;2024-01-30T05:17:54;10.80;99.90
1225;DHT22;602;48.000;7.840;2024-01-30T05:20:21;10.90;99.90
1225;DHT22;602;48.000;7.840;2024-01-30T05:22:48;10.90;99.90
1225;DHT22;602;48.000;7.840;2024-01-30T05:25:15;10.80;99.90
1225;DHT22;602;48.000;7.840;2024-01-30T05:27:42;10.70;99.90
1225;DHT22;602;48.000;7.840;2024-01-30T05:30:11;10.70;99.90
1225;DHT22;602;48.000;7.840;2024-01-30T05:32:38;10.80;99.90
1225;DHT22;602;48.000;7.840;2024-01-30T05:35:05;10.80;99.90
1225;DHT22;602;48.000;7.840;2024-01-30T05:37:33;10.70;99.90
1225;DHT22;602;48.000;7.840;2024-01-30T05:40:00;10.70;99.90
1225;DHT22;602;48.000;7.840;2024-01-30T05:42:27;10.70;99.90
1225;DHT22;602;48.000;7.840;2024-01-30T05:44:54;10.60;99.90
1225;DHT22;602;48.000;7.840;2024-01-30T05:47:22;10.60;99.90
1225;DHT22;602;48.000;7.840;2024-01-30T05:49:49;10.70;99.90
1225;DHT22;602;48.000;7.840;2024-01-30T05:52:15;10.70;99.90
1225;DHT22;602;48.000;7.840;2024-01-30T05:54:44;10.60;99.90
1225;DHT22;602;48.000;7.840;2024-01-30T05:57:11;10.60;99.90
1225;DHT22;602;48.000;7.840;2024-01-30T05:59:38;10.50;99.90
1225;DHT22;602;48.000;7.840;2024-01-30T06:02:04;10.50;99.90
1225;DHT22;602;48.000;7.840;2024-01-30T06:04:33;10.50;99.90
1225;DHT22;602;48.000;7.840;2024-01-30T06:06:59;10.50;99.90
1225;DHT22;602;48.000;7.840;2024-01-30T06:09:27;10.50;99.90
1225;DHT22;602;48.000;7.840;2024-01-30T06:11:55;10.40;99.90
1225;DHT22;602;48.000;7.840;2024-01-30T06:14:22;10.50;99.90
1225;DHT22;602;48.000;7.840;2024-01-30T06:16:49;10.50;99.90
1225;DHT22;602;48.000;7.840;2024-01-30T06:19:16;10.50;99.90
1225;DHT22;602;48.000;7.840;2024-01-30T06:21:44;10.60;99.90
1225;DHT22;602;48.000;7.840;2024-01-30T06:24:11;10.70;99.90
1225;DHT22;602;48.000;7.840;2024-01-30T06:26:38;10.80;99.90
1225;DHT22;602;48.000;7.840;2024-01-30T06:29:05;10.90;99.90
1225;DHT22;602;48.000;7.840;2024-01-30T06:31:33;11.00;99.90
1225;DHT22;602;48.000;7.840;2024-01-30T06:33:59;11.10;99.90
1225;DHT22;602;48.000;7.840;2024-01-30T06:36:26;11.20;99.90
1225;DHT22;602;48.000;7.840;2024-01-30T06:38:54;11.20;99.90
1225;DHT22;602;48.000;7.840;2024-01-30T06:41:21;11.20;99.90
1225;DHT22;602;48.000;7.840;2024-01-30T06:43:49;11.20;99.90
1225;DHT22;602;48.000;7.840;2024-01-30T06:46:16;11.30;99.90
1225;DHT22;602;48.000;7.840;2024-01-30T06:48:43;11.30;99.90
1225;DHT22;602;48.000;7.840;2024-01-30T06:51:11;11.40;99.90
1225;DHT22;602;48.000;7.840;2024-01-30T06:53:39;11.40;99.90
1225;DHT22;602;48.000;7.840;2024-01-30T06:56:08;11.50;99.90
1225;DHT22;602;48.000;7.840;2024-01-30T06:58:35;11.40;99.90
1225;DHT22;602;48.000;7.840;2024-01-30T07:01:02;11.40;99.90
1225;DHT22;602;48.000;7.840;2024-01-30T07:03:29;11.50;99.90
1225;DHT22;602;48.000;7.840;2024-01-30T07:05:56;11.50;99.90
1225;DHT22;602;48.000;7.840;2024-01-30T07:08:23;11.50;99.90
1225;DHT22;602;48.000;7.840;2024-01-30T07:10:50;11.50;99.90
1225;DHT22;602;48.000;7.840;2024-01-30T07:13:22;11.50;99.90
1225;DHT22;602;48.000;7.840;2024-01-30T07:15:48;11.50;99.90
1225;DHT22;602;48.000;7.840;2024-01-30T07:18:16;11.50;99.90
1225;DHT22;602;48.000;7.840;2024-01-30T07:20:43;11.50;99.90
1225;DHT22;602;48.000;7.840;2024-01-30T07:23:13;11.50;99.90
1225;DHT22;602;48.000;7.840;2024-01-30T07:25:42;11.60;99.90
1225;DHT22;602;48.000;7.840;2024-01-30T07:28:09;11.60;99.90
1225;DHT22;602;48.000;7.840;2024-01-30T07:30:39;11.60;99.90
1225;DHT22;602;48.000;7.840;2024-01-30T07:33:06;11.60;99.90
1225;DHT22;602;48.000;7.840;2024-01-30T07:35:34;11.70;99.90
1225;DHT22;602;48.000;7.840;2024-01-30T07:38:01;11.70;99.90
1225;DHT22;602;48.000;7.840;2024-01-30T07:40:28;11.70;99.90
1225;DHT22;602;48.000;7.840;2024-01-30T07:42:55;11.80;99.90
1225;DHT22;602;48.000;7.840;2024-01-30T07:45:22;11.80;99.90
1225;DHT22;602;48.000;7.840;2024-01-30T07:47:51;11.80;99.90
1225;DHT22;602;48.000;7.840;2024-01-30T07:50:18;11.90;99.90
1225;DHT22;602;48.000;7.840;2024-01-30T07:52:45;11.90;99.90
1225;DHT22;602;48.000;7.840;2024-01-30T07:55:14;12.00;99.90
1225;DHT22;602;48.000;7.840;2024-01-30T07:57:41;11.90;99.90
1225;DHT22;602;48.000;7.840;2024-01-30T08:00:09;11.90;99.90
1225;DHT22;602;48.000;7.840;2024-01-30T08:02:36;12.00;99.90
1225;DHT22;602;48.000;7.840;2024-01-30T08:05:05;12.00;99.90
1225;DHT22;602;48.000;7.840;2024-01-30T08:07:31;12.10;99.90
1225;DHT22;602;48.000;7.840;2024-01-30T08:09:58;12.20;99.90
1225;DHT22;602;48.000;7.840;2024-01-30T08:12:25;12.20;99.90
1225;DHT22;602;48.000;7.840;2024-01-30T08:14:52;12.20;99.90
1225;DHT22;602;48.000;7.840;2024-01-30T08:17:19;12.30;99.90
1225;DHT22;602;48.000;7.840;2024-01-30T08:19:45;12.30;99.90
1225;DHT22;602;48.000;7.840;2024-01-30T08:22:14;12.40;99.90
1225;DHT22;602;48.000;7.840;2024-01-30T08:24:41;12.50;99.90
1225;DHT22;602;48.000;7.840;2024-01-30T08:27:08;12.40;99.90
1225;DHT22;602;48.000;7.840;2024-01-30T08:29:36;12.50;99.90
1225;DHT22;602;48.000;7.840;2024-01-30T08:32:04;12.50;99.90
1225;DHT22;602;48.000;7.840;2024-01-30T08:34:31;12.60;99.90
1225;DHT22;602;48.000;7.840;2024-01-30T08:36:57;12.60;99.90
1225;DHT22;602;48.000;7.840;2024-01-30T08:39:26;12.60;99.90
1225;DHT22;602;48.000;7.840;2024-01-30T08:41:53;12.60;99.90
1225;DHT22;602;48.000;7.840;2024-01-30T08:44:19;12.60;99.90
1225;DHT22;602;48.000;7.840;2024-01-30T08:46:46;12.70;99.90
1225;DHT22;602;48.000;7.840;2024-01-30T08:49:14;12.60;99.90
1225;DHT22;602;48.000;7.840;2024-01-30T08:51:42;12.70;99.90
1225;DHT22;602;48.000;7.840;2024-01-30T08:54:09;12.60;99.90
1225;DHT22;602;48.000;7.840;2024-01-30T08:56:38;12.60;99.90
1225;DHT22;602;48.000;7.840;2024-01-30T08:59:04;12.60;99.90
1225;DHT22;602;48.000;7.840;2024-01-30T09:01:31;12.70;99.90
1225;DHT22;602;48.000;7.840;2024-01-30T09:03:58;12.70;99.90
1225;DHT22;602;48.000;7.840;2024-01-30T09:06:25;12.70;99.90
1225;DHT22;602;48.000;7.840;2024-01-30T09:08:53;12.80;99.90
1225;DHT22;602;48.000;7.840;2024-01-30T09:11:20;12.80;99.90
1225;DHT22;602;48.000;7.840;2024-01-30T09:13:48;12.80;99.90
1225;DHT22;602;48.000;7.840;2024-01-30T09:16:15;12.80;99.90
1225;DHT22;602;48.000;7.840;2024-01-30T09:18:42;12.90;99.90
1225;DHT22;602;48.000;7.840;2024-01-30T09:21:10;13.00;99.90
1225;DHT22;602;48.000;7.840;2024-01-30T09:23:37;13.00;99.90
1225;DHT22;602;48.000;7.840;2024-01-30T09:26:04;13.10;99.90
1225;DHT22;602;48.000;7.840;2024-01-30T09:28:30;13.10;99.90
1225;DHT22;602;48.000;7.840;2024-01-30T09:30:59;13.20;99.90
1225;DHT22;602;48.000;7.840;2024-01-30T09:33:26;13.30;99.90
1225;DHT22;602;48.000;7.840;2024-01-30T09:35:52;13.30;99.90
1225;DHT22;602;48.000;7.840;2024-01-30T09:38:19;13.20;99.90
1225;DHT22;602;48.000;7.840;2024-01-30T09:40:53;13.30;99.90
1225;DHT22;602;48.000;7.840;2024-01-30T09:43:23;13.30;99.90
1225;DHT22;602;48.000;7.840;2024-01-30T09:45:50;13.30;99.90
1225;DHT22;602;48.000;7.840;2024-01-30T09:48:19;13.30;99.90
1225;DHT22;602;48.000;7.840;2024-01-30T09:50:46;13.30;99.90
1225;DHT22;602;48.000;7.840;2024-01-30T09:53:14;13.40;99.90
1225;DHT22;602;48.000;7.840;2024-01-30T09:55:43;13.50;99.90
1225;DHT22;602;48.000;7.840;2024-01-30T09:58:12;13.50;99.90
1225;DHT22;602;48.000;7.840;2024-01-30T10:00:39;13.50;99.90
1225;DHT22;602;48.000;7.840;2024-01-30T10:03:07;13.50;99.90
1225;DHT22;602;48.000;7.840;2024-01-30T10:05:35;13.60;99.90
1225;DHT22;602;48.000;7.840;2024-01-30T10:08:06;13.60;99.90
1225;DHT22;602;48.000;7.840;2024-01-30T10:10:33;13.60;99.90
1225;DHT22;602;48.000;7.840;2024-01-30T10:13:01;13.60;99.90
1225;DHT22;602;48.000;7.840;2024-01-30T10:15:28;13.60;99.90
1225;DHT22;602;48.000;7.840;2024-01-30T10:17:55;13.70;99.90
1225;DHT22;602;48.000;7.840;2024-01-30T10:20:22;13.70;99.90
1225;DHT22;602;48.000;7.840;2024-01-30T10:22:52;13.80;99.90
1225;DHT22;602;48.000;7.840;2024-01-30T10:25:21;13.90;99.90
1225;DHT22;602;48.000;7.840;2024-01-30T10:27:52;14.00;99.90
1225;DHT22;602;48.000;7.840;2024-01-30T10:30:19;14.00;99.90
1225;DHT22;602;48.000;7.840;2024-01-30T10:32:46;14.00;99.90
1225;DHT22;602;48.000;7.840;2024-01-30T10:35:13;14.10;99.90
1225;DHT22;602;48.000;7.840;2024-01-30T10:37:43;14.10;99.90
1225;DHT22;602;48.000;7.840;2024-01-30T10:40:13;14.10;99.90
1225;DHT22;602;48.000;7.840;2024-01-30T10:42:43;14.30;99.90
1225;DHT22;602;48.000;7.840;2024-01-30T10:45:11;14.20;99.90
1225;DHT22;602;48.000;7.840;2024-01-30T10:47:40;14.30;99.90
1225;DHT22;602;48.000;7.840;2024-01-30T10:50:08;14.40;99.90
1225;DHT22;602;48.000;7.840;2024-01-30T10:52:36;14.50;99.90
1225;DHT22;602;48.000;7.840;2024-01-30T10:55:04;14.50;99.90
1225;DHT22;602;48.000;7.840;2024-01-30T10:57:34;14.50;99.90
1225;DHT22;602;48.000;7.840;2024-01-30T11:00:04;14.50;99.90
1225;DHT22;602;48.000;7.840;2024-01-30T11:02:36;14.60;99.90
1225;DHT22;602;48.000;7.840;2024-01-30T11:05:04;14.60;99.90
1225;DHT22;602;48.000;7.840;2024-01-30T11:07:31;14.70;99.90
1225;DHT22;602;48.000;7.840;2024-01-30T11:10:02;14.70;99.90
1225;DHT22;602;48.000;7.840;2024-01-30T11:12:30;14.80;99.90
1225;DHT22;602;48.000;7.840;2024-01-30T11:15:04;14.80;99.90
1225;DHT22;602;48.000;7.840;2024-01-30T11:17:43;15.00;99.90
1225;DHT22;602;48.000;7.840;2024-01-30T11:20:11;15.10;99.90
1225;DHT22;602;48.000;7.840;2024-01-30T11:22:42;15.20;99.90
1225;DHT22;602;48.000;7.840;2024-01-30T11:25:11;15.10;99.90
1225;DHT22;602;48.000;7.840;2024-01-30T11:27:38;15.20;99.90
1225;DHT22;602;48.000;7.840;2024-01-30T11:30:08;15.30;99.90
1225;DHT22;602;48.000;7.840;2024-01-30T11:32:35;15.30;99.90
1225;DHT22;602;48.000;7.840;2024-01-30T11:35:04;15.30;99.90
1225;DHT22;602;48.000;7.840;2024-01-30T11:37:37;15.40;99.90
1225;DHT22;602;48.000;7.840;2024-01-30T11:40:06;15.50;99.90
1225;DHT22;602;48.000;7.840;2024-01-30T11:42:34;15.50;99.90
1225;DHT22;602;48.000;7.840;2024-01-30T11:45:07;15.60;99.90
1225;DHT22;602;48.000;7.840;2024-01-30T11:47:35;15.60;99.90
1225;DHT22;602;48.000;7.840;2024-01-30T11:50:03;15.70;99.90
1225;DHT22;602;48.000;7.840;2024-01-30T11:52:32;15.70;99.90
1225;DHT22;602;48.000;7.840;2024-01-30T11:55:00;15.80;99.90
1225;DHT22;602;48.000;7.840;2024-01-30T11:57:27;15.90;99.90
1225;DHT22;602;48.000;7.840;2024-01-30T11:59:55;16.00;99.90
1225;DHT22;602;48.000;7.840;2024-01-30T12:02:24;16.00;99.90
1225;DHT22;602;48.000;7.840;2024-01-30T12:04:51;16.00;99.90
1225;DHT22;602;48.000;7.840;2024-01-30T12:07:18;16.00;99.90
1225;DHT22;602;48.000;7.840;2024-01-30T12:09:52;16.00;99.90
1225;DHT22;602;48.000;7.840;2024-01-30T12:12:21;16.10;99.90
1225;DHT22;602;48.000;7.840;2024-01-30T12:14:49;16.20;99.90
1225;DHT22;602;48.000;7.840;2024-01-30T12:17:26;16.20;99.90
1225;DHT22;602;48.000;7.840;2024-01-30T12:20:03;16.20;99.90
1225;DHT22;602;48.000;7.840;2024-01-30T12:22:33;16.20;99.90
1225;DHT22;602;48.000;7.840;2024-01-30T12:25:01;16.10;99.90
1225;DHT22;602;48.000;7.840;2024-01-30T12:27:28;16.00;99.90
1225;DHT22;602;48.000;7.840;2024-01-30T12:29:58;16.00;99.90
1225;DHT22;602;48.000;7.840;2024-01-30T12:32:27;16.00;99.90
1225;DHT22;602;48.000;7.840;2024-01-30T12:34:55;16.10;99.90
1225;DHT22;602;48.000;7.840;2024-01-30T12:37:24;16.20;99.90
1225;DHT22;602;48.000;7.840;2024-01-30T12:39:52;16.20;99.90
1225;DHT22;602;48.000;7.840;2024-01-30T12:42:20;16.00;99.90
1225;DHT22;602;48.000;7.840;2024-01-30T12:44:48;16.00;99.90
1225;DHT22;602;48.000;7.840;2024-01-30T12:47:15;16.00;99.90
1225;DHT22;602;48.000;7.840;2024-01-30T12:49:44;16.00;99.90
1225;DHT22;602;48.000;7.840;2024-01-30T12:52:11;16.00;99.90
1225;DHT22;602;48.000;7.840;2024-01-30T12:54:38;16.00;99.90
1225;DHT22;602;48.000;7.840;2024-01-30T12:57:05;16.00;99.90
1225;DHT22;602;48.000;7.840;2024-01-30T12:59:32;16.10;99.90
1225;DHT22;602;48.000;7.840;2024-01-30T13:02:01;16.10;99.90
1225;DHT22;602;48.000;7.840;2024-01-30T13:04:29;16.20;99.90
1225;DHT22;602;48.000;7.840;2024-01-30T13:06:57;16.20;99.90
1225;DHT22;602;48.000;7.840;2024-01-30T13:09:26;16.30;99.90
1225;DHT22;602;48.000;7.840;2024-01-30T13:11:53;16.30;99.90
1225;DHT22;602;48.000;7.840;2024-01-30T13:14:20;16.30;99.90
1225;DHT22;602;48.000;7.840;2024-01-30T13:16:47;16.30;99.90
1225;DHT22;602;48.000;7.840;2024-01-30T13:19:14;16.30;99.90
1225;DHT22;602;48.000;7.840;2024-01-30T13:21:41;16.30;99.90
1225;DHT22;602;48.000;7.840;2024-01-30T13:24:10;16.40;99.90
1225;DHT22;602;48.000;7.840;2024-01-30T13:26:38;16.50;99.90
1225;DHT22;602;48.000;7.840;2024-01-30T13:29:06;16.50;99.90
1225;DHT22;602;48.000;7.840;2024-01-30T13:31:33;16.50;99.90
1225;DHT22;602;48.000;7.840;2024-01-30T13:34:00;16.50;99.90
1225;DHT22;602;48.000;7.840;2024-01-30T13:36:27;16.60;99.90
1225;DHT22;602;48.000;7.840;2024-01-30T13:38:54;16.60;99.90
1225;DHT22;602;48.000;7.840;2024-01-30T13:41:24;16.60;99.90
1225;DHT22;602;48.000;7.840;2024-01-30T13:43:51;16.70;99.90
1225;DHT22;602;48.000;7.840;2024-01-30T13:46:18;16.80;99.90
1225;DHT22;602;48.000;7.840;2024-01-30T13:48:45;16.70;99.90
1225;DHT22;602;48.000;7.840;2024-01-30T13:51:12;16.60;99.90
1225;DHT22;602;48.000;7.840;2024-01-30T13:53:39;16.70;99.90
1225;DHT22;602;48.000;7.840;2024-01-30T13:56:07;16.80;99.90
1225;DHT22;602;48.000;7.840;2024-01-30T13:58:36;16.90;99.90
1225;DHT22;602;48.000;7.840;2024-01-30T14:01:03;16.80;99.90
1225;DHT22;602;48.000;7.840;2024-01-30T14:03:30;16.90;99.90
1225;DHT22;602;48.000;7.840;2024-01-30T14:05:58;16.80;99.90
1225;DHT22;602;48.000;7.840;2024-01-30T14:08:25;16.80;99.90
1225;DHT22;602;48.000;7.840;2024-01-30T14:10:53;16.60;99.90
1225;DHT22;602;48.000;7.840;2024-01-30T14:13:21;16.50;99.90
1225;DHT22;602;48.000;7.840;2024-01-30T14:15:49;16.50;99.90
1225;DHT22;602;48.000;7.840;2024-01-30T14:18:16;16.50;99.90
1225;DHT22;602;48.000;7.840;2024-01-30T14:20:43;16.50;99.90
1225;DHT22;602;48.000;7.840;2024-01-30T14:23:10;16.50;99.90
1225;DHT22;602;48.000;7.840;2024-01-30T14:25:37;16.50;99.90
1225;DHT22;602;48.000;7.840;2024-01-30T14:28:04;16.30;99.90
1225;DHT22;602;48.000;7.840;2024-01-30T14:30:31;16.10;99.90
1225;DHT22;602;48.000;7.840;2024-01-30T14:32:59;16.00;99.90
1225;DHT22;602;48.000;7.840;2024-01-30T14:35:26;16.00;99.90
1225;DHT22;602;48.000;7.840;2024-01-30T14:37:53;16.10;99.90
1225;DHT22;602;48.000;7.840;2024-01-30T14:40:20;16.00;99.90
1225;DHT22;602;48.000;7.840;2024-01-30T14:42:47;16.00;99.90
1225;DHT22;602;48.000;7.840;2024-01-30T14:45:14;16.00;99.90
1225;DHT22;602;48.000;7.840;2024-01-30T14:47:42;16.00;99.90
1225;DHT22;602;48.000;7.840;2024-01-30T14:50:10;15.80;99.90
1225;DHT22;602;48.000;7.840;2024-01-30T14:52:37;15.80;99.90
1225;DHT22;602;48.000;7.840;2024-01-30T14:55:06;15.70;99.90
1225;DHT22;602;48.000;7.840;2024-01-30T14:57:33;15.60;99.90
1225;DHT22;602;48.000;7.840;2024-01-30T15:00:04;15.60;99.90
1225;DHT22;602;48.000;7.840;2024-01-30T15:02:31;15.60;99.90
1225;DHT22;602;48.000;7.840;2024-01-30T15:04:58;15.60;99.90
1225;DHT22;602;48.000;7.840;2024-01-30T15:07:26;15.60;99.90
1225;DHT22;602;48.000;7.840;2024-01-30T15:09:54;15.60;99.90
1225;DHT22;602;48.000;7.840;2024-01-30T15:12:21;15.60;99.90
1225;DHT22;602;48.000;7.840;2024-01-30T15:14:48;15.60;99.90
1225;DHT22;602;48.000;7.840;2024-01-30T15:17:17;15.60;99.90
1225;DHT22;602;48.000;7.840;2024-01-30T15:19:44;15.50;99.90
1225;DHT22;602;48.000;7.840;2024-01-30T15:22:11;15.60;99.90
1225;DHT22;602;48.000;7.840;2024-01-30T15:24:41;15.60;99.90
1225;DHT22;602;48.000;7.840;2024-01-30T15:27:09;15.60;99.90
1225;DHT22;602;48.000;7.840;2024-01-30T15:29:36;15.70;99.90
1225;DHT22;602;48.000;7.840;2024-01-30T15:32:09;15.70;99.90
1225;DHT22;602;48.000;7.840;2024-01-30T15:34:37;15.80;99.90
1225;DHT22;602;48.000;7.840;2024-01-30T15:37:06;15.80;99.90
1225;DHT22;602;48.000;7.840;2024-01-30T15:39:34;15.80;99.90
1225;DHT22;602;48.000;7.840;2024-01-30T15:42:03;15.70;99.90
1225;DHT22;602;48.000;7.840;2024-01-30T15:44:31;15.60;99.90
1225;DHT22;602;48.000;7.840;2024-01-30T15:47:02;15.70;99.90
1225;DHT22;602;48.000;7.840;2024-01-30T15:49:29;15.60;99.90
1225;DHT22;602;48.000;7.840;2024-01-30T15:51:56;15.60;99.90
1225;DHT22;602;48.000;7.840;2024-01-30T15:54:23;15.60;99.90
1225;DHT22;602;48.000;7.840;2024-01-30T15:56:50;15.60;99.90
1225;DHT22;602;48.000;7.840;2024-01-30T15:59:19;15.60;99.90
1225;DHT22;602;48.000;7.840;2024-01-30T16:01:46;15.60;99.90
1225;DHT22;602;48.000;7.840;2024-01-30T16:04:15;15.70;99.90
1225;DHT22;602;48.000;7.840;2024-01-30T16:06:42;15.60;99.90
1225;DHT22;602;48.000;7.840;2024-01-30T16:09:09;15.60;99.90
1225;DHT22;602;48.000;7.840;2024-01-30T16:11:36;15.70;99.90
1225;DHT22;602;48.000;7.840;2024-01-30T16:14:04;15.60;99.90
1225;DHT22;602;48.000;7.840;2024-01-30T16:16:32;15.50;99.90
1225;DHT22;602;48.000;7.840;2024-01-30T16:19:00;15.50;99.90
1225;DHT22;602;48.000;7.840;2024-01-30T16:21:27;15.50;99.90